Time;durP1;ratioP1;P1;durP2;ratioP2;P2;SDS_P1;SDS_P2;PMS_P1;PMS_P2;Temp;Humidity;BMP_temperature;BMP_pressure;BME280_temperature;BME280_humidity;BME280_pressure;Samples;Min_cycle;Max_cycle;Signal;HPM_P1;HPM_P2
2021/10/14 00:01:58;;;;;;;8.85;2.58;;;;;;;11.43;57.88;102159.00;5038064;28;20477;-71
2021/10/14 00:04:23;;;;;;;6.25;2.03;;;;;;;11.38;58.37;102168.75;5033236;28;20033;-71
2021/10/14 00:06:49;;;;;;;4.32;1.60;;;;;;;11.51;58.01;102169.28;5020433;28;20114;-71
2021/10/14 00:09:15;;;;;;;4.82;1.77;;;;;;;11.40;58.27;102159.94;5027711;28;20041;-71
2021/10/14 00:11:40;;;;;;;6.25;2.03;;;;;;;11.38;58.50;102151.28;5025404;28;20420;-71
2021/10/14 00:14:07;;;;;;;7.13;2.13;;;;;;;11.51;57.75;102158.81;5032883;28;20452;-71
2021/10/14 00:16:32;;;;;;;5.70;1.58;;;;;;;11.63;57.61;102163.78;5026327;28;20048;-71
2021/10/14 00:19:02;;;;;;;4.78;1.48;;;;;;;11.70;57.39;102159.25;5026878;28;20033;-71
2021/10/14 00:21:28;;;;;;;5.13;0.88;;;;;;;11.52;58.18;102160.56;5012380;28;20530;-70
2021/10/14 00:23:53;;;;;;;9.90;1.30;;;;;;;11.59;57.86;102154.28;5046599;28;20071;-71
2021/10/14 00:26:19;;;;;;;3.03;1.00;;;;;;;11.65;58.02;102156.75;5018150;28;20085;-71
2021/10/14 00:28:44;;;;;;;8.00;1.10;;;;;;;11.56;57.85;102160.44;5026545;28;20049;-70
2021/10/14 00:31:10;;;;;;;4.55;1.08;;;;;;;11.47;58.16;102152.81;5029651;28;20041;-71
2021/10/14 00:33:35;;;;;;;11.85;0.60;;;;;;;11.44;58.52;102153.75;5014219;28;20028;-71
2021/10/14 00:36:01;;;;;;;4.88;0.82;;;;;;;11.09;59.70;102145.84;5031109;28;20045;-71
2021/10/14 00:38:26;;;;;;;2.88;0.77;;;;;;;11.61;57.90;102145.47;5041046;28;20093;-71
2021/10/14 00:40:52;;;;;;;7.07;0.75;;;;;;;11.57;57.81;102156.91;5009729;28;20176;-71
2021/10/14 00:43:17;;;;;;;4.18;1.30;;;;;;;10.66;60.77;102147.56;5024165;28;20607;-70
2021/10/14 00:45:43;;;;;;;6.93;1.27;;;;;;;11.27;58.72;102137.56;5040208;28;20037;-71
2021/10/14 00:48:08;;;;;;;12.02;1.55;;;;;;;11.38;58.41;102142.56;5039950;28;20045;-73
2021/10/14 00:50:34;;;;;;;4.35;1.05;;;;;;;11.53;58.08;102130.84;5029005;28;20075;-71
2021/10/14 00:53:00;;;;;;;9.70;1.83;;;;;;;11.34;58.89;102143.53;5040851;28;20661;-71
2021/10/14 00:55:27;;;;;;;5.18;1.13;;;;;;;11.42;58.77;102136.38;5026929;28;20045;-72
2021/10/14 00:57:52;;;;;;;11.68;1.15;;;;;;;11.43;58.44;102133.69;5041126;28;20044;-72
2021/10/14 01:00:18;;;;;;;4.13;0.68;;;;;;;11.33;58.83;102132.19;5033298;28;20040;-70
2021/10/14 01:02:44;;;;;;;6.65;0.80;;;;;;;11.22;59.08;102128.97;5041696;28;20138;-71
2021/10/14 01:05:10;;;;;;;4.35;0.70;;;;;;;11.16;59.39;102119.50;5027292;28;20486;-71
2021/10/14 01:07:36;;;;;;;7.18;0.80;;;;;;;11.45;58.45;102123.19;5032052;28;20033;-71
2021/10/14 01:10:03;;;;;;;5.88;0.70;;;;;;;11.60;58.04;102125.44;5044928;28;20033;-72
2021/10/14 01:12:30;;;;;;;8.82;0.40;;;;;;;11.46;58.58;102122.28;5008894;28;20076;-72
2021/10/14 01:14:55;;;;;;;7.10;0.65;;;;;;;11.29;58.91;102124.47;5033202;28;20036;-72
2021/10/14 01:17:21;;;;;;;4.07;0.40;;;;;;;11.29;59.35;102127.94;5025077;28;20036;-71
2021/10/14 01:19:46;;;;;;;2.80;0.32;;;;;;;11.45;58.73;102131.91;5043966;28;20613;-71
2021/10/14 01:22:12;;;;;;;6.50;0.90;;;;;;;11.65;58.17;102120.09;5038287;28;20068;-71
2021/10/14 01:24:38;;;;;;;3.85;0.50;;;;;;;11.54;58.38;102120.34;5033702;28;20040;-71
2021/10/14 01:27:05;;;;;;;3.60;0.60;;;;;;;11.57;58.27;102122.03;5004077;28;20056;-71
2021/10/14 01:29:32;;;;;;;3.85;0.90;;;;;;;11.65;57.99;102118.31;5043030;28;20029;-72
2021/10/14 01:31:58;;;;;;;2.58;0.65;;;;;;;11.79;57.61;102115.38;5038506;28;20053;-72
2021/10/14 01:34:24;;;;;;;4.22;1.33;;;;;;;11.69;57.59;102116.50;5030785;28;20120;-71
2021/10/14 01:36:50;;;;;;;1.88;0.38;;;;;;;11.59;58.32;102112.38;5026928;28;20056;-72
2021/10/14 01:39:15;;;;;;;1.48;0.45;;;;;;;11.62;58.34;102114.91;5026073;28;20056;-71
2021/10/14 01:41:45;;;;;;;4.80;0.30;;;;;;;11.41;58.35;102109.31;5029156;28;20041;-71
2021/10/14 01:44:10;;;;;;;2.67;0.43;;;;;;;11.43;58.66;102102.28;5011364;28;20044;-71
2021/10/14 01:46:36;;;;;;;0.85;0.10;;;;;;;11.19;58.98;102101.09;5036863;28;20037;-71
2021/10/14 01:49:02;;;;;;;3.22;0.20;;;;;;;11.34;58.76;102094.66;5023209;28;20660;-72
2021/10/14 01:51:27;;;;;;;1.25;0.03;;;;;;;11.25;58.42;102092.25;5045164;28;20064;-71
2021/10/14 01:53:53;;;;;;;3.38;0.20;;;;;;;11.39;58.15;102092.78;5041034;28;20034;-71
2021/10/14 01:56:18;;;;;;;1.88;0.10;;;;;;;11.39;58.15;102098.00;5007823;28;20045;-72
2021/10/14 01:58:43;;;;;;;2.83;0.10;;;;;;;11.58;57.65;102103.66;5023652;28;20041;-72
2021/10/14 02:01:09;;;;;;;0.47;0.00;;;;;;;11.54;57.66;102095.94;5026903;28;20025;-71
2021/10/14 02:03:34;;;;;;;3.35;0.22;;;;;;;11.38;57.71;102096.28;5012174;28;20429;-72
2021/10/14 02:06:00;;;;;;;0.85;0.10;;;;;;;11.51;57.43;102106.47;5018902;28;20029;-72
2021/10/14 02:08:25;;;;;;;0.22;0.00;;;;;;;11.45;57.24;102102.25;5028037;28;20041;-71
2021/10/14 02:10:51;;;;;;;0.20;0.10;;;;;;;11.21;58.10;102108.91;5037977;28;20124;-72
2021/10/14 02:13:16;;;;;;;1.13;0.20;;;;;;;11.56;57.31;102104.59;5040391;28;20048;-72
2021/10/14 02:15:42;;;;;;;0.82;0.10;;;;;;;11.54;56.92;102103.78;5026833;28;20039;-72
2021/10/14 02:18:07;;;;;;;2.28;0.10;;;;;;;11.10;58.44;102100.44;5023010;28;20037;-71
2021/10/14 02:20:33;;;;;;;2.88;0.10;;;;;;;11.26;57.64;102101.81;5023763;28;20853;-70
2021/10/14 02:22:58;;;;;;;3.83;0.10;;;;;;;11.27;57.62;102092.22;5004859;28;20037;-71
2021/10/14 02:25:24;;;;;;;5.00;0.10;;;;;;;11.10;58.04;102101.31;5032981;28;20143;-72
2021/10/14 02:27:49;;;;;;;7.90;0.60;;;;;;;11.09;58.18;102094.38;5029564;28;20128;-71
2021/10/14 02:30:15;;;;;;;1.00;0.10;;;;;;;11.04;58.13;102094.47;5015991;28;20106;-71
2021/10/14 02:32:41;;;;;;;3.35;0.17;;;;;;;11.04;58.48;102096.22;5007480;28;20056;-71
2021/10/14 02:35:08;;;;;;;4.65;0.10;;;;;;;10.85;59.19;102103.59;5024986;28;20040;-71
2021/10/14 02:37:33;;;;;;;4.80;0.22;;;;;;;11.01;58.35;102097.13;5043813;28;20036;-71
2021/10/14 02:39:59;;;;;;;6.75;0.35;;;;;;;11.00;58.03;102100.66;5030419;28;20120;-70
2021/10/14 02:42:25;;;;;;;4.30;0.40;;;;;;;11.09;58.53;102098.75;5027382;28;20033;-71
2021/10/14 02:44:50;;;;;;;2.58;0.20;;;;;;;11.21;57.74;102095.81;5037118;28;20034;-70
2021/10/14 02:47:16;;;;;;;5.03;0.57;;;;;;;11.12;57.99;102094.28;5029667;28;20130;-70
2021/10/14 02:49:41;;;;;;;4.60;0.20;;;;;;;11.08;58.45;102097.00;5027396;28;20056;-71
2021/10/14 02:52:07;;;;;;;0.77;0.20;;;;;;;11.28;57.63;102104.41;5035647;28;20057;-72
2021/10/14 02:54:32;;;;;;;8.88;0.63;;;;;;;11.14;58.12;102096.88;5027881;28;20037;-71
2021/10/14 02:56:58;;;;;;;4.43;0.10;;;;;;;11.28;57.61;102107.88;5040805;28;20072;-70
2021/10/14 02:59:23;;;;;;;0.98;0.15;;;;;;;11.21;57.77;102098.44;5030673;28;20386;-71
2021/10/14 03:01:49;;;;;;;4.28;0.52;;;;;;;11.26;57.47;102107.03;5013693;28;20045;-71
2021/10/14 03:04:14;;;;;;;3.92;0.40;;;;;;;11.13;57.66;102105.59;5024953;28;20103;-70
2021/10/14 03:06:40;;;;;;;1.98;0.20;;;;;;;11.18;57.11;102101.16;5029661;28;20036;-72
2021/10/14 03:09:06;;;;;;;1.38;0.20;;;;;;;11.08;57.20;102102.25;5025819;28;20041;-72
2021/10/14 03:11:32;;;;;;;2.70;0.20;;;;;;;10.89;57.64;102100.03;5039777;28;20041;-70
2021/10/14 03:13:57;;;;;;;5.68;0.40;;;;;;;10.94;57.57;102103.41;5042076;28;20063;-72
2021/10/14 03:16:23;;;;;;;4.07;0.35;;;;;;;10.82;57.64;102101.06;5031110;28;20049;-71
2021/10/14 03:18:49;;;;;;;2.75;0.20;;;;;;;10.92;57.06;102097.34;5029473;28;20031;-71
2021/10/14 03:21:15;;;;;;;2.67;0.22;;;;;;;10.50;58.58;102101.69;5034743;28;20079;-72
2021/10/14 03:23:41;;;;;;;1.42;0.20;;;;;;;10.54;58.23;102101.59;5040343;28;20060;-71
2021/10/14 03:26:07;;;;;;;5.38;0.30;;;;;;;10.61;57.75;102097.09;5024748;28;20633;-71
2021/10/14 03:28:32;;;;;;;4.63;0.25;;;;;;;10.27;58.55;102095.16;5039744;28;20079;-72
2021/10/14 03:30:58;;;;;;;4.43;0.40;;;;;;;10.39;58.25;102096.66;5027240;28;20044;-71
2021/10/14 03:33:23;;;;;;;4.97;0.30;;;;;;;10.41;58.06;102094.88;5043079;28;20064;-71
2021/10/14 03:35:49;;;;;;;1.38;0.45;;;;;;;10.44;57.54;102089.63;5039293;28;20681;-71
2021/10/14 03:38:15;;;;;;;6.07;1.15;;;;;;;9.85;59.59;102083.75;5041091;28;20033;-70
2021/10/14 03:40:40;;;;;;;7.32;0.55;;;;;;;10.04;59.08;102082.56;5022987;28;20033;-72
2021/10/14 03:43:06;;;;;;;9.23;0.55;;;;;;;10.15;58.16;102083.22;5028900;28;20041;-72
2021/10/14 03:45:32;;;;;;;4.13;0.25;;;;;;;9.85;59.03;102088.97;5030199;28;20031;-74
2021/10/14 03:47:57;;;;;;;4.72;0.65;;;;;;;10.01;58.32;102079.97;5041296;28;20041;-72
2021/10/14 03:50:23;;;;;;;7.20;0.63;;;;;;;9.53;59.88;102085.16;5014288;28;20556;-72
2021/10/14 03:52:48;;;;;;;8.50;0.68;;;;;;;9.79;59.24;102089.94;5024539;28;20037;-72
2021/10/14 03:55:14;;;;;;;6.97;0.52;;;;;;;9.90;58.64;102085.41;5014832;28;20032;-72
2021/10/14 03:57:39;;;;;;;9.68;0.88;;;;;;;10.01;57.72;102086.09;5039942;28;20071;-72
2021/10/14 04:00:08;;;;;;;4.88;0.50;;;;;;;9.30;60.54;102085.50;5016434;28;20466;-72
2021/10/14 04:02:34;;;;;;;9.55;1.10;;;;;;;9.63;59.86;102088.44;5012695;28;20033;-72
2021/10/14 04:04:59;;;;;;;9.70;0.82;;;;;;;9.89;59.01;102093.28;5026996;28;20030;-72
2021/10/14 04:07:25;;;;;;;3.85;0.80;;;;;;;10.10;58.08;102094.63;5046337;28;20047;-71
2021/10/14 04:09:50;;;;;;;14.85;1.58;;;;;;;9.95;58.87;102095.78;5055176;28;20056;-72
2021/10/14 04:12:16;;;;;;;5.47;1.02;;;;;;;9.95;58.76;102101.84;5054417;28;20072;-72
2021/10/14 04:14:41;;;;;;;6.50;0.75;;;;;;;9.62;60.09;102100.66;5038139;28;20037;-71
2021/10/14 04:17:07;;;;;;;5.22;0.63;;;;;;;10.08;59.07;102104.22;5037040;28;20033;-70
2021/10/14 04:19:33;;;;;;;15.40;1.95;;;;;;;10.28;58.20;102096.03;5055093;28;20029;-71
2021/10/14 04:21:59;;;;;;;9.43;1.02;;;;;;;10.30;58.54;102099.47;5057613;28;20041;-71
2021/10/14 04:24:27;;;;;;;4.40;1.05;;;;;;;9.96;59.58;102103.56;5044860;28;20037;-72
2021/10/14 04:26:53;;;;;;;2.97;0.80;;;;;;;9.93;59.46;102101.03;5060910;28;20328;-71
2021/10/14 04:29:19;;;;;;;5.15;0.73;;;;;;;9.95;59.92;102096.63;5041706;28;20040;-71
2021/10/14 04:31:45;;;;;;;6.88;1.05;;;;;;;10.36;58.75;102096.75;5062407;28;20052;-71
2021/10/14 04:34:11;;;;;;;3.72;0.95;;;;;;;10.25;58.88;102094.34;5046614;28;20036;-72
2021/10/14 04:36:37;;;;;;;5.55;1.10;;;;;;;10.44;58.71;102097.47;5055756;28;20045;-71
2021/10/14 04:39:05;;;;;;;11.52;1.42;;;;;;;10.31;58.73;102096.84;5057419;28;20106;-75
2021/10/14 04:41:30;;;;;;;2.75;1.05;;;;;;;10.69;57.83;102099.56;5044991;28;20029;-71
2021/10/14 04:43:56;;;;;;;3.45;1.02;;;;;;;10.67;58.09;102096.13;5034289;28;20033;-71
2021/10/14 04:46:21;;;;;;;9.57;1.17;;;;;;;10.54;58.47;102095.50;5044114;28;20092;-71
2021/10/14 04:48:47;;;;;;;3.97;0.80;;;;;;;10.70;58.08;102090.81;5041320;28;20080;-72
2021/10/14 04:51:12;;;;;;;6.95;1.15;;;;;;;10.57;58.70;102088.47;5036736;28;20092;-72
2021/10/14 04:53:38;;;;;;;4.63;0.52;;;;;;;10.46;59.39;102087.84;5049533;28;20040;-72
2021/10/14 04:56:04;;;;;;;7.20;0.68;;;;;;;10.58;59.05;102086.72;5029076;28;20041;-71
2021/10/14 04:58:32;;;;;;;4.10;0.93;;;;;;;10.97;58.03;102082.44;5029447;28;20374;-72
2021/10/14 05:00:58;;;;;;;3.70;0.88;;;;;;;11.11;57.83;102076.03;5023001;28;20093;-74
2021/10/14 05:03:24;;;;;;;6.97;1.08;;;;;;;11.15;57.21;102077.66;5044628;28;20545;-72
2021/10/14 05:05:49;;;;;;;1.35;0.60;;;;;;;10.92;57.83;102076.41;5030634;28;20037;-72
2021/10/14 05:08:15;;;;;;;6.57;0.70;;;;;;;10.87;58.40;102077.44;5030495;28;20048;-72
2021/10/14 05:10:41;;;;;;;7.97;0.85;;;;;;;10.82;58.24;102067.94;5031497;28;20033;-72
2021/10/14 05:13:07;;;;;;;8.90;1.52;;;;;;;10.67;59.14;102070.84;5026519;28;20578;-72
2021/10/14 05:15:33;;;;;;;11.13;1.65;;;;;;;10.68;59.05;102064.69;5034788;28;20033;-71
2021/10/14 05:17:59;;;;;;;2.72;0.80;;;;;;;10.55;59.33;102061.50;5027883;28;20037;-72
2021/10/14 05:20:24;;;;;;;10.07;0.90;;;;;;;10.57;59.27;102064.94;5021385;28;20059;-72
2021/10/14 05:22:50;;;;;;;5.55;1.20;;;;;;;10.67;59.15;102059.53;5027141;28;20050;-72
2021/10/14 05:25:15;;;;;;;8.50;0.75;;;;;;;10.45;58.82;102054.75;5025471;28;20083;-72
2021/10/14 05:27:41;;;;;;;10.48;0.90;;;;;;;10.64;58.30;102048.25;5042839;28;20045;-73
2021/10/14 05:30:07;;;;;;;4.45;0.75;;;;;;;10.71;58.42;102048.97;5033075;28;20108;-74
2021/10/14 05:32:32;;;;;;;4.40;0.40;;;;;;;10.64;58.07;102050.84;5033674;28;20037;-71
2021/10/14 05:34:59;;;;;;;4.70;0.55;;;;;;;10.88;57.36;102047.75;5041297;28;20128;-71
2021/10/14 05:37:26;;;;;;;6.20;0.50;;;;;;;10.87;57.38;102046.91;5007844;28;20033;-72
2021/10/14 05:39:52;;;;;;;1.65;0.60;;;;;;;10.83;57.02;102060.94;5039627;28;20473;-71
2021/10/14 05:42:17;;;;;;;5.63;0.50;;;;;;;11.09;56.31;102056.88;5032003;28;20045;-70
2021/10/14 05:44:43;;;;;;;9.05;0.52;;;;;;;10.85;56.75;102056.53;5044150;28;20032;-71
2021/10/14 05:47:08;;;;;;;2.33;0.28;;;;;;;10.79;57.02;102054.00;5032354;28;20146;-71
2021/10/14 05:49:34;;;;;;;5.80;0.70;;;;;;;10.79;57.22;102049.66;5037665;28;20114;-71
2021/10/14 05:51:59;;;;;;;3.28;0.52;;;;;;;10.82;57.21;102052.22;5034203;28;20065;-71
2021/10/14 05:54:25;;;;;;;2.42;0.75;;;;;;;10.96;56.79;102046.69;5032236;28;20028;-70
2021/10/14 05:56:50;;;;;;;3.47;1.00;;;;;;;10.73;57.24;102056.78;5012312;28;20574;-70
2021/10/14 05:59:16;;;;;;;4.75;0.45;;;;;;;10.96;56.74;102057.16;5042073;28;20033;-72
2021/10/14 06:01:41;;;;;;;4.50;0.35;;;;;;;10.94;56.86;102058.94;5041352;28;20068;-71
2021/10/14 06:04:07;;;;;;;3.53;0.40;;;;;;;10.91;56.92;102056.41;5055488;28;20056;-72
2021/10/14 06:06:32;;;;;;;1.83;0.30;;;;;;;10.87;57.10;102056.50;5060472;28;20045;-72
2021/10/14 06:08:58;;;;;;;6.97;0.80;;;;;;;10.78;57.15;102052.31;5051455;28;20041;-71
2021/10/14 06:11:23;;;;;;;2.83;1.05;;;;;;;10.62;57.78;102052.63;5042046;28;20125;-71
2021/10/14 06:13:49;;;;;;;2.42;0.32;;;;;;;10.57;57.94;102048.38;5037599;28;20037;-72
2021/10/14 06:16:14;;;;;;;2.80;0.70;;;;;;;10.89;57.06;102046.88;5065740;28;20094;-71
2021/10/14 06:18:40;;;;;;;3.25;0.50;;;;;;;10.88;57.01;102052.97;5065072;28;20110;-71
2021/10/14 06:21:06;;;;;;;0.95;0.45;;;;;;;11.01;57.05;102050.03;5056208;28;20029;-71
2021/10/14 06:23:32;;;;;;;5.45;1.00;;;;;;;11.10;56.67;102043.75;5043730;28;20013;-72
2021/10/14 06:25:58;;;;;;;2.45;0.68;;;;;;;10.75;57.86;102047.13;5046731;28;20099;-70
2021/10/14 06:28:24;;;;;;;3.17;0.50;;;;;;;11.02;56.90;102046.56;5060453;28;20037;-71
2021/10/14 06:30:51;;;;;;;5.43;1.10;;;;;;;11.09;56.82;102051.66;5036282;28;20037;-70
2021/10/14 06:33:17;;;;;;;4.47;0.75;;;;;;;11.09;57.07;102051.66;5043447;28;20033;-71
2021/10/14 06:35:43;;;;;;;2.00;0.75;;;;;;;10.64;58.73;102044.78;5049258;28;20031;-71
2021/10/14 06:38:08;;;;;;;3.88;0.50;;;;;;;10.70;58.46;102047.22;5035164;28;20037;-71
2021/10/14 06:40:34;;;;;;;1.42;0.60;;;;;;;10.97;57.69;102040.56;5052190;28;20091;-74
2021/10/14 06:43:00;;;;;;;2.85;0.63;;;;;;;10.74;58.66;102046.28;5060310;28;20045;-71
2021/10/14 06:45:25;;;;;;;4.63;0.80;;;;;;;10.72;58.69;102047.19;5057800;28;20029;-71
2021/10/14 06:47:51;;;;;;;5.22;0.73;;;;;;;11.12;57.25;102046.34;5064190;28;20048;-71
2021/10/14 06:50:17;;;;;;;1.48;0.43;;;;;;;10.88;58.27;102043.38;5050644;28;20120;-71
2021/10/14 06:52:43;;;;;;;4.05;0.63;;;;;;;11.22;57.10;102043.47;5039765;28;20037;-71
2021/10/14 06:55:10;;;;;;;3.28;0.82;;;;;;;11.08;57.58;102048.16;5042003;28;20025;-72
2021/10/14 06:57:35;;;;;;;4.65;1.08;;;;;;;11.05;57.58;102049.09;5056614;28;20060;-71
2021/10/14 07:00:03;;;;;;;3.92;0.70;;;;;;;11.12;57.47;102046.34;5055662;28;20055;-73
2021/10/14 07:02:28;;;;;;;4.20;0.70;;;;;;;10.97;57.78;102043.19;5029131;28;20034;-71
2021/10/14 07:04:54;;;;;;;2.38;0.60;;;;;;;10.90;58.44;102032.88;5047057;28;20071;-70
2021/10/14 07:07:19;;;;;;;2.53;0.60;;;;;;;10.59;58.93;102036.13;5029564;28;20128;-70
2021/10/14 07:09:45;;;;;;;6.03;1.63;;;;;;;11.14;57.52;102028.84;5040148;28;20076;-71
2021/10/14 07:12:10;;;;;;;1.77;0.90;;;;;;;10.94;58.13;102037.16;5016128;28;20048;-72
2021/10/14 07:14:37;;;;;;;1.75;1.23;;;;;;;10.46;59.54;102042.53;5033636;28;20041;-72
2021/10/14 07:17:04;;;;;;;1.45;0.68;;;;;;;11.14;57.55;102029.69;5043934;28;20196;-70
2021/10/14 07:19:30;;;;;;;2.53;1.50;;;;;;;11.12;57.96;102030.63;5047952;28;20128;-70
2021/10/14 07:21:55;;;;;;;2.00;0.98;;;;;;;11.24;57.64;102025.09;5027124;28;20044;-71
2021/10/14 07:24:21;;;;;;;2.58;2.20;;;;;;;11.31;57.49;102021.44;5026081;28;20618;-71
2021/10/14 07:26:46;;;;;;;2.95;1.95;;;;;;;11.33;57.07;102024.00;5030813;28;20210;-70
2021/10/14 07:29:12;;;;;;;5.03;2.58;;;;;;;11.08;57.83;102014.13;5043699;28;20082;-70
2021/10/14 07:31:38;;;;;;;4.20;2.42;;;;;;;11.40;57.35;102020.34;5041579;28;20101;-71
2021/10/14 07:34:04;;;;;;;4.85;3.08;;;;;;;10.96;58.32;102019.69;5029773;28;20037;-70
2021/10/14 07:36:30;;;;;;;4.38;2.72;;;;;;;10.76;58.91;102022.72;5014962;28;20403;-70
2021/10/14 07:38:56;;;;;;;4.65;3.17;;;;;;;11.21;58.14;102015.56;5047763;28;20029;-70
2021/10/14 07:41:21;;;;;;;6.72;3.22;;;;;;;11.19;57.81;102013.88;5025531;28;20454;-71
2021/10/14 07:43:47;;;;;;;4.47;2.85;;;;;;;11.43;57.46;102010.66;5038135;28;20033;-70
2021/10/14 07:46:13;;;;;;;6.00;3.33;;;;;;;11.11;58.28;102008.00;5050884;28;20455;-71
2021/10/14 07:48:38;;;;;;;6.05;3.00;;;;;;;11.18;58.21;102009.56;5042187;28;20086;-71
2021/10/14 07:51:04;;;;;;;4.30;2.97;;;;;;;10.44;60.18;102019.06;5037060;28;20505;-71
2021/10/14 07:53:30;;;;;;;4.28;2.80;;;;;;;11.24;57.92;102025.09;5026353;28;20055;-71
2021/10/14 07:55:55;;;;;;;5.90;2.80;;;;;;;11.42;57.54;102029.03;5028382;28;20037;-72
2021/10/14 07:58:21;;;;;;;10.02;3.50;;;;;;;11.52;57.01;102029.66;5041275;28;20171;-71
2021/10/14 08:00:47;;;;;;;4.85;2.92;;;;;;;11.21;57.84;102030.41;5025338;28;20025;-72
2021/10/14 08:03:13;;;;;;;13.38;3.50;;;;;;;11.01;58.58;102029.13;5021716;28;20502;-71
2021/10/14 08:05:38;;;;;;;8.30;3.05;;;;;;;11.43;57.30;102021.13;5029405;28;20258;-71
2021/10/14 08:08:05;;;;;;;5.97;2.97;;;;;;;11.10;58.07;102019.34;5023115;28;20045;-71
2021/10/14 08:10:32;;;;;;;8.90;3.13;;;;;;;10.76;58.30;102025.31;5041219;28;20102;-72
2021/10/14 08:12:58;;;;;;;6.10;2.67;;;;;;;10.99;58.27;102030.91;5031501;28;20045;-72
2021/10/14 08:15:24;;;;;;;6.57;2.67;;;;;;;11.24;57.66;102031.19;5013682;28;20475;-71
2021/10/14 08:17:50;;;;;;;6.75;2.35;;;;;;;11.01;58.03;102026.50;5007819;28;20052;-71
2021/10/14 08:20:17;;;;;;;9.65;2.03;;;;;;;10.33;59.48;102031.47;5027816;28;20032;-71
2021/10/14 08:22:43;;;;;;;7.88;2.50;;;;;;;11.33;57.52;102027.50;5029915;28;20040;-70
2021/10/14 08:25:12;;;;;;;5.43;2.05;;;;;;;11.29;57.27;102019.75;5011841;28;20033;-71
2021/10/14 08:27:38;;;;;;;7.50;2.30;;;;;;;10.90;57.95;102025.03;5035079;28;20131;-71
2021/10/14 08:30:05;;;;;;;9.13;2.47;;;;;;;11.20;57.92;102019.09;5010328;28;20048;-71
2021/10/14 08:32:31;;;;;;;8.25;2.70;;;;;;;11.07;58.27;102019.44;5039860;28;20053;-71
2021/10/14 08:34:57;;;;;;;3.60;1.88;;;;;;;11.73;56.02;102017.75;5035927;28;20429;-72
2021/10/14 08:37:23;;;;;;;4.28;2.05;;;;;;;11.26;57.47;102025.91;5007608;28;20049;-71
2021/10/14 08:39:50;;;;;;;6.60;2.85;;;;;;;10.75;58.38;102023.59;5022245;28;20036;-71
2021/10/14 08:42:16;;;;;;;8.38;2.25;;;;;;;10.68;58.67;102019.41;5024021;28;20112;-71
2021/10/14 08:44:42;;;;;;;9.55;2.50;;;;;;;11.16;57.67;102021.81;5006864;28;20130;-71
2021/10/14 08:47:10;;;;;;;11.60;2.35;;;;;;;10.98;58.15;102023.13;5027286;28;20623;-71
2021/10/14 08:49:37;;;;;;;8.57;2.10;;;;;;;10.70;58.76;102020.22;5027684;28;20115;-72
2021/10/14 08:52:02;;;;;;;9.70;1.88;;;;;;;10.86;58.58;102016.41;5011958;28;20475;-71
2021/10/14 08:54:28;;;;;;;7.25;2.92;;;;;;;10.06;60.16;102025.91;5035296;28;20061;-71
2021/10/14 08:56:54;;;;;;;8.10;3.22;;;;;;;10.98;57.93;102013.50;5022640;28;20116;-71
2021/10/14 08:59:19;;;;;;;11.98;3.35;;;;;;;10.72;58.53;102021.06;5037274;28;20105;-71
2021/10/14 09:02:05;;;;;;;7.43;2.70;;;;;;;10.46;59.21;102017.28;5029117;28;20868;-71
2021/10/14 09:04:32;;;;;;;8.43;2.78;;;;;;;11.26;57.68;102033.75;5015558;28;20045;-72
2021/10/14 09:07:17;;;;;;;5.38;3.40;;;;;;;10.86;58.44;102019.03;5023703;28;20064;-71
2021/10/14 09:09:44;;;;;;;5.72;2.60;;;;;;;11.19;57.86;102021.72;5014290;28;20050;-71
2021/10/14 09:12:12;;;;;;;9.07;2.88;;;;;;;10.97;58.22;102030.13;5017362;28;22430;-72
2021/10/14 09:14:54;;;;;;;7.88;3.40;;;;;;;11.40;57.11;102021.22;5019381;28;20066;-72
2021/10/14 09:17:44;;;;;;;7.25;2.85;;;;;;;10.82;58.38;102030.47;5024069;28;20056;-72
2021/10/14 09:20:31;;;;;;;5.78;3.45;;;;;;;11.27;57.52;102024.19;5031163;28;20051;-71
2021/10/14 09:23:11;;;;;;;5.85;3.10;;;;;;;11.05;57.27;102027.31;5038147;28;20063;-71
2021/10/14 09:25:45;;;;;;;10.30;2.75;;;;;;;11.39;57.00;102024.72;5029824;28;20037;-71
2021/10/14 09:28:30;;;;;;;8.27;3.55;;;;;;;11.36;56.58;102024.78;5054361;28;20050;-71
2021/10/14 09:30:58;;;;;;;11.15;2.95;;;;;;;11.29;56.96;102023.25;5051793;28;20039;-72
2021/10/14 09:33:47;;;;;;;11.65;3.33;;;;;;;11.80;55.22;102025.44;5053503;28;20029;-71
2021/10/14 09:36:27;;;;;;;8.73;3.47;;;;;;;11.80;54.54;102025.44;5046522;28;20032;-71
2021/10/14 09:39:03;;;;;;;8.65;3.33;;;;;;;12.19;53.24;102027.84;5053380;28;20043;-71
2021/10/14 09:41:39;;;;;;;6.95;3.20;;;;;;;11.98;54.15;102021.47;5043307;28;20024;-70
2021/10/14 09:44:06;;;;;;;8.15;2.83;;;;;;;12.29;53.10;102024.06;5037419;28;20053;-72
2021/10/14 09:46:45;;;;;;;4.43;3.47;;;;;;;11.23;55.62;102012.91;5044031;28;20034;-73
2021/10/14 09:49:21;;;;;;;11.50;3.03;;;;;;;11.32;55.25;102017.06;5038714;28;20107;-71
2021/10/14 09:51:46;;;;;;;8.38;3.30;;;;;;;10.76;56.48;102022.72;5055312;28;20038;-73
2021/10/14 09:54:13;;;;;;;3.75;2.58;;;;;;;11.30;55.58;102024.94;5057957;28;20059;-71
2021/10/14 09:56:38;;;;;;;7.55;3.13;;;;;;;11.52;54.84;102019.19;5042610;28;20040;-71
2021/10/14 09:59:05;;;;;;;6.63;3.13;;;;;;;11.09;55.65;102015.03;5043126;28;20124;-71
2021/10/14 10:01:37;;;;;;;5.75;2.90;;;;;;;11.75;54.50;102015.94;5023205;28;20031;-71
2021/10/14 10:04:04;;;;;;;9.27;3.13;;;;;;;11.66;53.83;102011.81;5029723;28;20463;-71
2021/10/14 10:06:32;;;;;;;6.15;2.90;;;;;;;11.90;53.86;102019.94;5031629;28;20404;-71
2021/10/14 10:09:04;;;;;;;8.35;2.78;;;;;;;11.93;53.06;102009.38;5037335;28;20045;-71
2021/10/14 10:11:30;;;;;;;;;;;;;;;11.66;53.63;102017.03;5030707;28;20064;-71
2021/10/14 10:13:57;;;;;;;4.28;1.85;;;;;;;11.68;53.39;102016.09;5052504;28;19916;-71
2021/10/14 10:16:27;;;;;;;6.00;2.15;;;;;;;11.89;53.12;102013.84;5022134;28;20033;-71
2021/10/14 10:18:58;;;;;;;9.23;2.97;;;;;;;11.88;52.99;102020.84;5039298;28;20644;-70
2021/10/14 10:21:29;;;;;;;6.28;2.70;;;;;;;11.84;53.73;102021.84;5047081;28;20483;-70
2021/10/14 10:23:57;;;;;;;8.38;2.75;;;;;;;11.93;53.25;102022.47;5038705;28;20041;-71
2021/10/14 10:26:34;;;;;;;8.48;2.53;;;;;;;11.89;52.74;102003.38;5045723;28;20087;-71
2021/10/14 10:29:03;;;;;;;11.43;3.13;;;;;;;11.63;53.68;102004.03;5047634;28;20132;-73
2021/10/14 10:31:56;;;;;;;6.68;2.22;;;;;;;11.98;52.89;102004.88;5034331;28;20537;-71
2021/10/14 10:40:16;;;;;;;;;;;;;;;12.01;52.31;102002.16;5051952;28;20113;-71
2021/10/14 10:42:47;;;;;;;6.60;1.67;;;;;;;12.12;52.36;102007.13;5047076;28;19920;-71
2021/10/14 10:45:28;;;;;;;6.93;1.80;;;;;;;11.59;53.53;101991.94;5045553;28;20041;-72
2021/10/14 10:47:53;;;;;;;6.50;1.55;;;;;;;11.78;52.99;101993.19;5029306;28;20045;-71
2021/10/14 10:50:22;;;;;;;7.72;2.38;;;;;;;11.50;53.76;101995.66;5031950;28;20470;-71
2021/10/14 10:53:00;;;;;;;10.85;2.35;;;;;;;11.72;53.23;101985.47;5046010;28;20064;-73
2021/10/14 10:55:25;;;;;;;4.28;1.60;;;;;;;11.94;51.92;101987.53;5043098;28;20104;-71
2021/10/14 10:57:53;;;;;;;7.90;1.95;;;;;;;12.19;52.10;101992.94;5027904;28;20566;-71
2021/10/14 11:00:25;;;;;;;4.97;2.47;;;;;;;11.98;52.57;101991.78;5036060;28;20037;-71
2021/10/14 11:03:10;;;;;;;10.15;2.22;;;;;;;11.48;53.22;101983.50;5050628;28;20097;-70
2021/10/14 11:05:39;;;;;;;7.85;1.98;;;;;;;11.43;52.69;101984.47;5031208;28;20026;-71
2021/10/14 11:08:07;;;;;;;4.55;2.10;;;;;;;11.84;52.19;101985.16;5043500;28;20081;-69
2021/10/14 11:10:32;;;;;;;5.97;2.20;;;;;;;11.21;53.89;101983.31;5028107;28;20037;-72
2021/10/14 11:13:01;;;;;;;2.40;1.10;;;;;;;11.35;53.39;101981.22;5028088;28;20294;-72
2021/10/14 11:15:27;;;;;;;5.97;1.30;;;;;;;12.01;52.63;101981.22;5036724;28;20106;-75
2021/10/14 11:18:01;;;;;;;7.43;2.20;;;;;;;12.10;52.05;101975.69;5050365;28;20041;-71
2021/10/14 11:20:26;;;;;;;4.60;1.70;;;;;;;12.07;51.92;101962.69;5047159;28;20041;-72
2021/10/14 11:22:52;;;;;;;9.48;1.67;;;;;;;12.08;51.85;101961.78;5029235;28;20053;-72
2021/10/14 11:25:17;;;;;;;5.97;2.33;;;;;;;12.00;51.33;101962.03;5028623;28;20147;-71
2021/10/14 11:27:45;;;;;;;7.70;1.70;;;;;;;12.25;51.11;101963.91;5025887;28;20423;-71
2021/10/14 11:30:18;;;;;;;5.65;1.63;;;;;;;11.97;51.38;101969.09;5028128;28;20516;-73
2021/10/14 11:32:53;;;;;;;5.30;1.73;;;;;;;11.77;51.92;101964.38;5046482;28;20064;-72